Nearby Idaho METAR Reports

Sorted by Distance from Emmett Weather Station - Emmett, Idaho

 

KEUL - Caldwell, Idaho, USA
Distance from station: SSW 19mi, 30km
Updated: Mon, 26-Feb-2024 2:56pm MST
Mostly cloudy
Mostly cloudy
 Wind from varies
Wind: varies 7 mph , 11 km/h
Temperature: 39°F , 4°C
Wind Chill: 34°F , 1°C
Dew Point: 27°F , -3°C
Humidity: 61%
Barometer: 29.72 inHg , 1006.4 hPa
Clouds: Mostly cloudy
Visibility: 10 miles , 16 km
Cloud details: Few Clouds 2400 ft
Mostly cloudy 4200 ft
Mostly cloudy 5000 ft
2024/02/26 21:56 KEUL 262156Z AUTO VRB06KT 10SM FEW024 BKN042 BKN050 04/M03 A2972 RMK AO2 SLP068 T00441033
KMAN - Nampa, Idaho, USA
Distance from station: S 19mi, 31km
Updated: Mon, 26-Feb-2024 2:55pm MST
Partly cloudy
Partly cloudy
 Wind from NW
Wind: NW 6 mph , 9 km/h
Temperature: 37°F , 3°C
Wind Chill: 32°F , 0°C
Dew Point: 37°F , 3°C
Humidity: 100%
Barometer: 29.72 inHg , 1006.4 hPa
Clouds: Partly cloudy
Visibility: 10 miles , 16 km
Cloud details: Few Clouds 1500 ft
Partly cloudy 4300 ft
Partly cloudy 4900 ft
2024/02/26 21:55 KMAN 262155Z AUTO 32005KT 10SM FEW015 SCT043 SCT049 03/03 A2972 RMK A01
 
KBOI - Boise, Idaho, USA
Distance from station: SSE 23mi, 38km
Updated: Mon, 26-Feb-2024 2:53pm MST
Overcast
Overcast
 Wind from W
Wind: W 3 mph , 6 km/h
Temperature: 36°F , 2°C
Dew Point: 34°F , 1°C
Humidity: 93%
Barometer: 29.68 inHg , 1005.1 hPa
Clouds: Overcast
Visibility: 10 miles , 16 km
Cloud details: Few Clouds 600 ft
Mostly cloudy 5000 ft
Overcast 6000 ft
2024/02/26 21:53 KBOI 262153Z 27003KT 10SM FEW006 BKN050 OVC060 02/01 A2968 RMK AO2 SNE34 SLP053 P0002 T00220006
KONO - Ontario, Oregon, USA
Distance from station: WNW 30mi, 48km
Updated: Mon, 26-Feb-2024 12:53pm MST
NOT Current
Overcast
Overcast
 Wind from N
Wind: N 9 mph , 15 km/h
Temperature: 43°F , 6°C
Wind Chill: 38°F , 3°C
Dew Point: 27°F , -3°C
Humidity: 53%
Barometer: 29.72 inHg , 1006.4 hPa
Clouds: Overcast
Visibility: 10 miles , 16 km
Cloud details: Overcast 6000 ft
2024/02/26 19:53 KONO 261953Z AUTO 35008KT 10SM OVC060 06/M03 A2972 RMK AO2 PK WND 34026/1914 SLP068 T00611028 $
 
KMUO - Mountain Home, Idaho, USA
Distance from station: SSE 65mi, 104km
Updated: Mon, 26-Feb-2024 2:54pm MST
Light snow, Mostly cloudy
Light snow, Mostly cloudy
 Wind from NW
Wind: NW 21 mph , 33 km/h, Gust: 28 mph , 44 km/h
Temperature: 36°F , 2°C
Wind Chill: 25°F , -4°C
Dew Point: 32°F , 0°C
Humidity: 87%
Barometer: 29.66 inHg , 1004.4 hPa
Summary: Light Snow
Clouds: Mostly cloudy
Visibility: 1 1/8 miles , 1.8 km
Cloud details: Mostly cloudy 700 ft
2024/02/26 21:54 KMUO 262154Z 31018G24KT 1 1/8SM -SN BKN007 02/M00 A2966 RMK PK WND 31029/14 VIS 1 1/4V2 1/4 SNB2055 BKN V SCT SLP050 P0001 T00151001 $
KMYL - Mccall, Idaho, USA
Distance from station: NNE 74mi, 119km
Updated: Mon, 26-Feb-2024 12:51pm MST
NOT Current
Overcast
Overcast
 Wind from WNW
Wind: WNW 7 mph , 11 km/h
Temperature: 27°F , -3°C
Wind Chill: 19°F , -7°C
Dew Point: 23°F , -5°C
Humidity: 86%
Barometer: 29.59 inHg , 1002 hPa
Clouds: Overcast
Visibility: 9 miles , 14 km
Cloud details: Partly cloudy 1300 ft
Mostly cloudy 2000 ft
Overcast 7000 ft
2024/02/26 19:51 KMYL 261951Z AUTO 29006KT 9SM SCT013 BKN020 OVC070 M03/M05 A2959 RMK AO2 SNE47 SLP033 P0001 T10281050
 
KSNT - Stanley, Idaho, USA
Distance from station: ENE 79mi, 127km
Updated: Mon, 26-Feb-2024 2:51pm MST

 Wind from NNW
Wind: NNW 7 mph , 11 km/h, Gust: 23 mph , 37 km/h
Temperature: 27°F , -3°C
Wind Chill: 19°F , -7°C
Dew Point: 19°F , -7°C
Humidity: 74%
Barometer: 29.54 inHg , 1000.3 hPa
2024/02/26 21:51 KSNT 262151Z AUTO 33006G20KT M03/M07 A2954 RMK AO1 SLP977 P0003 T10331067
KBKE - Baker, Oregon, USA
Distance from station: NW 96mi, 154km
Updated: Mon, 26-Feb-2024 2:53pm MST
Mostly cloudy
Mostly cloudy
 Wind from WNW
Wind: WNW 21 mph , 33 km/h, Gust: 31 mph , 50 km/h
Temperature: 39°F , 4°C
Wind Chill: 29°F , -2°C
Dew Point: 18°F , -8°C
Humidity: 42%
Barometer: 29.70 inHg , 1005.8 hPa
Clouds: Mostly cloudy
Visibility: 10 miles , 16 km
Cloud details: Partly cloudy 6000 ft
Mostly cloudy 11000 ft
2024/02/26 21:53 KBKE 262153Z AUTO 30018G27KT 10SM SCT060 BKN110 04/M08 A2970 RMK AO2 PK WND 30029/2143 SLP063 T00391078
 
KJSY - Joseph, Oregon, USA
Distance from station: NNW 111mi, 179km
Updated: Mon, 26-Feb-2024 7:15am MST
NOT Current
Snow, Overcast
Snow, Overcast
 Wind from N
Wind: N 12 mph , 19 km/h, Gust: 21 mph , 33 km/h
Temperature: 32°F , 0°C
Wind Chill: 23°F , -5°C
Dew Point: 32°F , 0°C
Humidity: 100%
Barometer: 29.58 inHg , 1001.7 hPa
Summary: Snow
Clouds: Overcast
Visibility: 3/4 mile , 1.2 km
Cloud details: Overcast 500 ft
2024/02/26 14:15 KJSY 261415Z AUTO 35010G18KT 3/4SM SN OVC005 00/00 A2958 RMK AO2 T10051005
KSUN - Hailey/Friedman, Idaho, USA
Distance from station: ESE 112mi, 180km
Updated: Mon, 26-Feb-2024 1:47pm MST
Mist, Overcast
Mist, Overcast
 Wind from SSW
Wind: SSW 14 mph , 22 km/h
Temperature: 36°F , 2°C
Wind Chill: 27°F , -3°C
Dew Point: 28°F , -2°C
Humidity: 75%
Barometer: 29.59 inHg , 1002 hPa
Summary: Mist
Clouds: Overcast
Visibility: 5 miles , 8 km
Cloud details: Partly cloudy 3600 ft
Mostly cloudy 6000 ft
Overcast 7000 ft
2024/02/26 20:47 KSUN 262047Z 21012KT 5SM BR SCT036 BKN060 OVC070 02/M02 A2959
 
KREO - Rome, Oregon, USA
Distance from station: SW 113mi, 182km
Updated: Mon, 26-Feb-2024 12:52pm MST
NOT Current

 Wind from WSW
Wind: WSW 28 mph , 44 km/h, Gust: 45 mph , 72 km/h
Temperature: 45°F , 7°C
Wind Chill: 36°F , 2°C
Dew Point: 28°F , -2°C
Humidity: 53%
Barometer: 29.66 inHg , 1004.4 hPa
2024/02/26 19:52 KREO 261952Z AUTO 25024G39KT 07/M02 A2966 RMK AO1 PK WND 23043/1927 SLP043 T00671017
KLLJ - Challis, Idaho, USA
Distance from station: ENE 120mi, 193km
Updated: Mon, 26-Feb-2024 2:55pm MST
Overcast
Overcast
 Wind from NW
Wind: NW 13 mph , 20 km/h, Gust: 23 mph , 37 km/h
Temperature: 34°F , 1°C
Wind Chill: 25°F , -4°C
Dew Point: 25°F , -4°C
Humidity: 70%
Barometer: 29.47 inHg , 998 hPa
Clouds: Overcast
Visibility: 9 miles , 14 km
Cloud details: Mostly cloudy 2800 ft
Mostly cloudy 3800 ft
Overcast 5000 ft
2024/02/26 21:55 KLLJ 262155Z AUTO 32011G20KT 9SM BKN028 BKN038 OVC050 01/M04 A2947 RMK AO2 WSHFT 2105 SNB11E55 SLP971 P0000 T00111039 $
 
KLGD - La Grande, Oregon, USA
Distance from station: NW 123mi, 198km
Updated: Mon, 26-Feb-2024 2:56pm MST
Clear
Clear
 Wind from W
Wind: W 15 mph , 24 km/h, Gust: 24 mph , 39 km/h
Temperature: 39°F , 4°C
Wind Chill: 31°F , -1°C
Dew Point: 18°F , -8°C
Humidity: 42%
Barometer: 29.73 inHg , 1006.8 hPa
Clouds: Clear
Visibility: 10 miles , 16 km
2024/02/26 21:56 KLGD 262156Z AUTO 28013G21KT 10SM CLR 04/M08 A2973 RMK AO2 SLP078 T00391078
KBNO - Burns, Oregon, USA
Distance from station: W 126mi, 202km
Updated: Mon, 26-Feb-2024 2:53pm MST
Clear
Clear
 Wind from WNW
Wind: WNW 25 mph , 41 km/h, Gust: 37 mph , 59 km/h
Temperature: 39°F , 4°C
Wind Chill: 28°F , -2°C
Dew Point: 21°F , -6°C
Humidity: 48%
Barometer: 29.71 inHg , 1006.1 hPa
Clouds: Clear
Visibility: 10 miles , 16 km
2024/02/26 21:53 KBNO 262153Z AUTO 29022G32KT 10SM CLR 04/M06 A2971 RMK AO2 PK WND 27036/2114 SLP065 T00391061
 
KJER - Jerome County, Idaho, USA
Distance from station: SE 128mi, 207km
Updated: Mon, 26-Feb-2024 2:53pm MST
Snow, Fog, Overcast
Snow, Fog, Overcast
 Wind from W
Wind: W 12 mph , 19 km/h
Temperature: 32°F , 0°C
Wind Chill: 23°F , -5°C
Dew Point: 30°F , -1°C
Humidity: 93%
Barometer: 29.63 inHg , 1003.4 hPa
Summary: Snow, Fog
Clouds: Overcast
Visibility: 1/4 mile , 0.4 km
Cloud details: Overcast 500 ft
2024/02/26 21:53 KJER 262153Z AUTO 26010KT 1/4SM SN FG VV005 00/M01 A2963 RMK AO2 SLP040 P0007 T00001011
KGCD - John Day State, Oregon, USA
Distance from station: WNW 129mi, 208km
Updated: Mon, 26-Feb-2024 2:35pm MST
Mostly cloudy
Mostly cloudy
 Wind from W
Wind: W 15 mph , 24 km/h, Gust: 24 mph , 39 km/h
Temperature: 32°F , 0°C
Wind Chill: 22°F , -6°C
Dew Point: 27°F , -3°C
Humidity: 80%
Barometer: 29.74 inHg , 1007.1 hPa
Clouds: Mostly cloudy
Visibility: 10 miles , 16 km
Cloud details: Partly cloudy 800 ft
Partly cloudy 1700 ft
Mostly cloudy 2800 ft
2024/02/26 21:35 KGCD 262135Z AUTO 26013G21KT 10SM SCT008 SCT017 BKN028 00/M03 A2974 RMK AO2 T00001027
 
KTWF - Twin Falls, Idaho, USA
Distance from station: SE 138mi, 222km
Updated: Mon, 26-Feb-2024 2:53pm MST
Light rain, Mist, Overcast
Light rain, Mist, Overcast
 Wind from WSW
Wind: WSW 6 mph , 9 km/h
Temperature: 34°F , 1°C
Wind Chill: 29°F , -2°C
Dew Point: 32°F , 0°C
Humidity: 93%
Barometer: 29.63 inHg , 1003.4 hPa
Summary: Light rain, Mist
Clouds: Overcast
Visibility: 2 miles , 3 km
Cloud details: Few Clouds 300 ft
Mostly cloudy 1300 ft
Overcast 2100 ft
2024/02/26 21:53 KTWF 262153Z 24005KT 2SM -RA BR FEW003 BKN013 OVC021 01/00 A2963 RMK AO2 VIS 3/4V5 UPE06B29E32RAB52SNB06E29B32E52 SLP020 P0005 T00060000
KGIC - Grangeville, Idaho, USA
Distance from station: N 144mi, 232km
Updated: Mon, 26-Feb-2024 2:35pm MST
Overcast
Overcast
 Wind from ESE
Wind: ESE 5 mph , 7 km/h
Temperature: 32°F , 0°C
Wind Chill: 27°F , -3°C
Dew Point: 28°F , -2°C
Humidity: 87%
Barometer: 29.65 inHg , 1004.1 hPa
Clouds: Overcast
Visibility: 10 miles , 16 km
Cloud details: Partly cloudy 2700 ft
Mostly cloudy 4200 ft
Overcast 9500 ft
2024/02/26 21:35 KGIC 262135Z AUTO 12004KT 10SM SCT027 BKN042 OVC095 00/M02 A2965 RMK AO1
 
KMEH - Meacham, Oregon, USA
Distance from station: NW 149mi, 240km
Updated: Mon, 26-Feb-2024 2:56pm MST
Overcast
Overcast
 Wind from varies
Wind: varies 5 mph , 7 km/h
Temperature: 30°F , -1°C
Wind Chill: 25°F , -4°C
Dew Point: 23°F , -5°C
Humidity: 75%
Barometer: 29.68 inHg , 1005.1 hPa
Clouds: Overcast
Visibility: 10 miles , 16 km
Cloud details: Mostly cloudy 100 ft
Mostly cloudy 700 ft
Overcast 1900 ft
2024/02/26 21:56 KMEH 262156Z AUTO VRB04KT 10SM BKN001 BKN007 OVC019 M01/M05 A2968 RMK AO2 SLP068 T10111050
KSMN - Salmon/Lemhi, Idaho, USA
Distance from station: NE 154mi, 248km
Updated: Mon, 26-Feb-2024 2:56pm MST
Overcast
Overcast
 Wind from NNE
Wind: NNE 13 mph , 20 km/h
Temperature: 34°F , 1°C
Wind Chill: 25°F , -4°C
Dew Point: 18°F , -8°C
Humidity: 51%
Barometer: 29.58 inHg , 1001.7 hPa
Clouds: Overcast
Visibility: 10 miles , 16 km
Cloud details: Mostly cloudy 4300 ft
Overcast 5500 ft
2024/02/26 21:56 KSMN 262156Z AUTO 02011KT 10SM BKN043 OVC055 01/M08 A2958 RMK AO2 UPB06E20 SLP025 P0000 T00061083 FZRANO
 
KBYI - Burley, Idaho, USA
Distance from station: ESE 163mi, 262km
Updated: Mon, 26-Feb-2024 2:53pm MST
Light snow, Mist, Overcast
Light snow, Mist, Overcast
 Wind from WNW
Wind: WNW 7 mph , 11 km/h
Temperature: 34°F , 1°C
Wind Chill: 28°F , -2°C
Dew Point: 34°F , 1°C
Humidity: 100%
Barometer: 29.62 inHg , 1003 hPa
Summary: Light snow, Mist
Clouds: Overcast
Visibility: 1 1/2 miles , 2.4 km
Cloud details: Mostly cloudy 800 ft
Overcast 1200 ft
2024/02/26 21:53 KBYI 262153Z AUTO 29006KT 1 1/2SM -SN BR BKN008 OVC012 01/01 A2962 RMK AO2 RAE2057B13E23UPB23E33SNB2057E13B33 SLP038 P0003 T00060006
KP69 - Lowell/Elk City, Idaho, USA
Distance from station: NNE 164mi, 263km
Updated: Mon, 26-Feb-2024 2:52pm MST

 Wind from calm
Wind: Calm
Temperature: 37°F , 3°C
Dew Point: 30°F , -1°C
Humidity: 75%
Barometer: 29.73 inHg , 1006.8 hPa
2024/02/26 21:52 KP69 262152Z AUTO 00000KT 03/M01 A2973 RMK AO1 SLP077 P0006 T00331006
 
KPDT - Pendleton, Oregon, USA
Distance from station: NW 172mi, 277km
Updated: Mon, 26-Feb-2024 2:53pm MST
Partly cloudy
Partly cloudy
 Wind from W
Wind: W 30 mph , 48 km/h, Gust: 39 mph , 63 km/h
Temperature: 46°F , 8°C
Wind Chill: 37°F , 3°C
Dew Point: 25°F , -4°C
Humidity: 43%
Barometer: 29.75 inHg , 1007.5 hPa
Clouds: Partly cloudy
Visibility: 10 miles , 16 km
Cloud details: Few Clouds 4900 ft
Partly cloudy 6000 ft
2024/02/26 21:53 KPDT 262153Z 27026G34KT 10SM FEW049 SCT060 08/M04 A2975 RMK AO2 PK WND 27034/2153 SLP071 T00781039
KLWS - Lewiston, Idaho, USA
Distance from station: N 175mi, 282km
Updated: Mon, 26-Feb-2024 2:56pm MST
Mostly cloudy
Mostly cloudy
 Wind from NW
Wind: NW 21 mph , 33 km/h, Gust: 26 mph , 43 km/h
Temperature: 43°F , 6°C
Wind Chill: 34°F , 1°C
Dew Point: 19°F , -7°C
Humidity: 39%
Barometer: 29.69 inHg , 1005.4 hPa
Clouds: Mostly cloudy
Visibility: 10 miles , 16 km
Cloud details: Few Clouds 4900 ft
Mostly cloudy 6500 ft
Mostly cloudy 8000 ft
2024/02/26 21:56 KLWS 262156Z 31018G23KT 10SM FEW049 BKN065 BKN080 06/M07 A2969 RMK AO2 PK WND 26029/2133 SLP060 T00561072
 
KALW - Walla Walla, Washington, USA
Distance from station: NNW 178mi, 287km
Updated: Mon, 26-Feb-2024 2:53pm MST
Mostly cloudy
Mostly cloudy
 Wind from WSW
Wind: WSW 13 mph , 20 km/h, Gust: 26 mph , 43 km/h
Temperature: 45°F , 7°C
Wind Chill: 39°F , 4°C
Dew Point: 25°F , -4°C
Humidity: 46%
Barometer: 29.72 inHg , 1006.4 hPa
Clouds: Mostly cloudy
Visibility: 10 miles , 16 km
Cloud details: Few Clouds 5000 ft
Mostly cloudy 7000 ft
2024/02/26 21:53 KALW 262153Z 25011G23KT 10SM FEW050 BKN070 07/M04 A2972 RMK AO2 PK WND 25033/2127 SLP068 T00671039
KHRI - Hermiston, Oregon, USA
Distance from station: NW 194mi, 311km
Updated: Mon, 26-Feb-2024 2:53pm MST
Clear
Clear
 Wind from WSW
Wind: WSW 21 mph , 33 km/h, Gust: 35 mph , 56 km/h
Temperature: 48°F , 9°C
Wind Chill: 41°F , 5°C
Dew Point: 27°F , -3°C
Humidity: 43%
Barometer: 29.76 inHg , 1007.8 hPa
Clouds: Clear
Visibility: 10 miles , 16 km
2024/02/26 21:53 KHRI 262153Z AUTO 25018G30KT 10SM CLR 09/M03 A2976 RMK AO2 PK WND 23035/2136 SLP078 T00941033
CoCoRaHS (Community Collaborative Rain, Hail and Snow Network) Station Number: ID-GM-5 Live Lightning Map - USA Boise Skywarn Spotter ID: DO21 AlertID Southwestern Weather Network
Northwestern Weather Network


National Sex Offender Public Website

National Sex Offender Public Website





(Click on the Flag Counter logo below for details in new browser tab)
Flag Counter